Time;durP1;ratioP1;P1;durP2;ratioP2;P2;SDS_P1;SDS_P2;PMS_P1;PMS_P2;Temp;Humidity;BMP_temperature;BMP_pressure;BME280_temperature;BME280_humidity;BME280_pressure;Samples;Min_cycle;Max_cycle;Signal;HPM_P1;HPM_P2
2022/07/06 00:01:56;;;;;;;5.22;2.83;;;;;;;13.47;75.29;102466.16;5115169;28;20080;-58
2022/07/06 00:04:22;;;;;;;4.75;2.92;;;;;;;13.47;75.15;102468.78;5115299;28;20096;-60
2022/07/06 00:06:47;;;;;;;7.25;3.25;;;;;;;13.40;75.25;102467.03;5114956;28;20168;-59
2022/07/06 00:09:12;;;;;;;7.40;3.58;;;;;;;13.38;75.14;102460.00;5114769;28;20031;-59
2022/07/06 00:11:38;;;;;;;6.25;3.30;;;;;;;13.25;75.71;102464.38;5114639;28;20431;-59
2022/07/06 00:14:04;;;;;;;6.53;3.42;;;;;;;13.34;75.32;102463.50;5115002;28;20045;-59
2022/07/06 00:16:30;;;;;;;8.40;3.67;;;;;;;13.26;75.98;102463.50;5115081;28;20081;-59
2022/07/06 00:18:55;;;;;;;4.45;3.45;;;;;;;13.25;75.86;102461.75;5115077;28;20461;-59
2022/07/06 00:21:20;;;;;;;4.57;3.28;;;;;;;13.27;76.30;102453.88;5114769;28;20359;-58
2022/07/06 00:23:46;;;;;;;6.10;3.38;;;;;;;13.28;76.20;102474.03;5114694;28;20043;-59
2022/07/06 00:26:11;;;;;;;4.60;3.28;;;;;;;13.31;76.21;102463.53;5114654;28;20354;-59
2022/07/06 00:28:36;;;;;;;5.82;3.35;;;;;;;13.28;75.96;102467.00;5114661;28;20035;-59
2022/07/06 00:31:02;;;;;;;4.65;3.25;;;;;;;13.26;76.62;102467.88;5114267;28;20030;-59
2022/07/06 00:33:27;;;;;;;8.35;3.33;;;;;;;13.19;77.01;102466.97;5115625;28;20187;-58
2022/07/06 00:35:52;;;;;;;4.72;3.40;;;;;;;13.19;76.29;102466.97;5118702;28;20042;-59
2022/07/06 00:38:18;;;;;;;5.78;3.60;;;;;;;13.24;76.70;102465.25;5118252;28;20046;-59
2022/07/06 00:40:43;;;;;;;5.40;3.33;;;;;;;13.15;77.12;102468.75;5117708;28;20098;-58
2022/07/06 00:43:08;;;;;;;5.70;3.45;;;;;;;13.15;77.20;102474.00;5117969;28;20504;-58
2022/07/06 00:45:34;;;;;;;5.65;3.38;;;;;;;13.15;77.62;102465.25;5117929;28;20027;-58
2022/07/06 00:47:59;;;;;;;5.07;3.30;;;;;;;13.10;77.20;102461.69;5118339;28;20054;-58
2022/07/06 00:50:25;;;;;;;8.30;3.50;;;;;;;13.11;78.00;102471.34;5118185;28;20395;-58
2022/07/06 00:52:51;;;;;;;5.15;3.58;;;;;;;13.15;77.50;102467.88;5117994;28;20093;-59
2022/07/06 00:55:20;;;;;;;5.15;3.28;;;;;;;13.10;78.03;102473.09;5118080;28;20037;-57
2022/07/06 00:57:45;;;;;;;6.82;3.20;;;;;;;13.09;78.11;102473.97;5117784;28;20038;-58
2022/07/06 01:00:13;;;;;;;7.43;4.03;;;;;;;13.02;78.25;102471.28;5118083;28;20035;-58
2022/07/06 01:02:39;;;;;;;5.45;3.50;;;;;;;13.00;78.27;102466.03;5117715;28;20455;-58
2022/07/06 01:05:06;;;;;;;5.53;3.63;;;;;;;13.00;78.28;102463.41;5117831;28;20038;-59
2022/07/06 01:07:32;;;;;;;6.72;3.83;;;;;;;12.98;78.72;102469.56;5117581;28;20414;-59
2022/07/06 01:09:57;;;;;;;9.02;3.70;;;;;;;12.96;79.01;102466.03;5117478;28;20031;-59
2022/07/06 01:12:23;;;;;;;5.00;3.55;;;;;;;12.91;79.19;102466.03;5117834;28;20032;-59
2022/07/06 01:14:49;;;;;;;9.43;3.80;;;;;;;12.90;78.59;102465.16;5117490;28;20108;-57
2022/07/06 01:17:15;;;;;;;7.18;3.72;;;;;;;12.84;78.76;102462.47;5117889;28;20031;-58
2022/07/06 01:19:41;;;;;;;6.90;3.90;;;;;;;12.75;78.29;102465.09;5117496;28;20046;-57
2022/07/06 01:22:07;;;;;;;6.40;3.92;;;;;;;12.68;79.08;102465.06;5117581;28;20028;-58
2022/07/06 01:24:36;;;;;;;6.72;4.45;;;;;;;12.66;79.20;102458.91;5117512;28;20038;-58
2022/07/06 01:27:04;;;;;;;6.10;4.13;;;;;;;12.58;79.50;102458.03;5117786;28;20031;-58
2022/07/06 01:29:29;;;;;;;6.18;4.45;;;;;;;12.55;79.15;102456.25;5117483;28;20031;-59
2022/07/06 01:31:55;;;;;;;5.18;4.00;;;;;;;12.65;79.35;102462.41;5116998;28;20043;-58
2022/07/06 01:34:21;;;;;;;8.18;4.57;;;;;;;12.62;79.20;102457.19;5117268;28;20028;-58
2022/07/06 01:36:46;;;;;;;6.00;4.28;;;;;;;12.59;79.46;102463.28;5117313;28;20313;-58
2022/07/06 01:39:11;;;;;;;7.20;4.68;;;;;;;12.57;80.04;102464.16;5116949;28;20111;-58
2022/07/06 01:41:38;;;;;;;7.75;4.70;;;;;;;12.51;79.98;102462.34;5116752;28;20031;-58
2022/07/06 01:44:04;;;;;;;11.52;4.35;;;;;;;12.47;79.53;102465.84;5117067;28;20073;-58
2022/07/06 01:46:29;;;;;;;9.82;5.00;;;;;;;12.48;80.00;102462.34;5115939;28;20032;-58
2022/07/06 01:48:54;;;;;;;7.90;5.05;;;;;;;12.40;80.03;102459.69;5116934;28;20354;-58
2022/07/06 01:51:19;;;;;;;7.15;4.80;;;;;;;12.41;80.86;102463.19;5116972;28;20035;-58
2022/07/06 01:53:45;;;;;;;7.10;4.85;;;;;;;12.31;80.46;102462.25;5116935;28;20084;-58
2022/07/06 01:56:11;;;;;;;7.90;5.10;;;;;;;12.24;80.71;102460.50;5116685;28;20395;-58
2022/07/06 01:58:37;;;;;;;8.68;5.53;;;;;;;12.33;80.60;102457.91;5116813;28;20119;-58
2022/07/06 02:01:09;;;;;;;8.85;5.20;;;;;;;12.33;80.82;102460.53;5116060;28;20043;-58
2022/07/06 02:03:35;;;;;;;7.70;5.35;;;;;;;12.32;80.97;102450.88;5116725;28;20547;-58
2022/07/06 02:06:00;;;;;;;9.85;5.40;;;;;;;12.30;80.94;102460.50;5116540;28;20110;-58
2022/07/06 02:08:26;;;;;;;6.55;4.97;;;;;;;12.21;81.29;102460.47;5116339;28;20123;-58
2022/07/06 02:10:51;;;;;;;8.45;5.10;;;;;;;12.25;81.23;102462.25;5116585;28;20035;-58
2022/07/06 02:13:16;;;;;;;7.72;5.10;;;;;;;12.16;81.93;102464.78;5116318;28;20024;-58
2022/07/06 02:15:42;;;;;;;9.20;5.20;;;;;;;12.16;81.98;102463.06;5116611;28;20031;-58
2022/07/06 02:18:07;;;;;;;7.68;5.13;;;;;;;12.08;82.31;102469.13;5116372;28;20388;-58
2022/07/06 02:20:32;;;;;;;7.03;4.88;;;;;;;12.14;82.02;102469.16;5116148;28;20092;-58
2022/07/06 02:22:57;;;;;;;8.50;5.50;;;;;;;12.06;82.59;102471.75;5116339;28;20028;-58
2022/07/06 02:25:23;;;;;;;6.68;5.13;;;;;;;12.14;82.47;102469.16;5116319;28;20084;-58
2022/07/06 02:27:48;;;;;;;8.25;5.47;;;;;;;12.10;82.29;102468.28;5116408;28;20035;-58
2022/07/06 02:30:13;;;;;;;9.68;5.97;;;;;;;12.11;82.16;102466.53;5116358;28;20107;-58
2022/07/06 02:32:38;;;;;;;8.07;5.25;;;;;;;12.05;82.37;102464.75;5115416;28;20060;-58
2022/07/06 02:35:04;;;;;;;7.85;5.60;;;;;;;12.01;83.11;102467.34;5115625;28;20366;-59
2022/07/06 02:37:29;;;;;;;8.10;5.72;;;;;;;11.99;83.41;102472.56;5115923;28;20023;-58
2022/07/06 02:39:55;;;;;;;12.25;6.07;;;;;;;11.97;83.06;102455.94;5115875;28;20031;-58
2022/07/06 02:42:20;;;;;;;8.18;5.68;;;;;;;12.00;83.57;102460.31;5116077;28;20024;-58
2022/07/06 02:44:45;;;;;;;7.65;5.72;;;;;;;12.00;82.93;102461.19;5116015;28;20381;-59
2022/07/06 02:47:10;;;;;;;8.75;5.72;;;;;;;12.04;83.15;102462.09;5115883;28;20035;-58
2022/07/06 02:49:36;;;;;;;9.35;5.32;;;;;;;11.98;83.33;102462.06;5115977;28;20449;-58
2022/07/06 02:52:01;;;;;;;7.43;5.93;;;;;;;11.97;83.34;102460.31;5115759;28;20034;-59
2022/07/06 02:54:26;;;;;;;8.68;5.63;;;;;;;11.99;84.12;102458.56;5115382;28;20345;-58
2022/07/06 02:56:53;;;;;;;7.90;5.40;;;;;;;11.97;84.12;102466.41;5115426;28;20093;-58
2022/07/06 02:59:19;;;;;;;11.15;6.35;;;;;;;12.00;83.62;102466.44;5115610;28;20091;-58
2022/07/06 03:01:44;;;;;;;8.15;5.90;;;;;;;11.94;83.66;102470.81;5115604;28;20031;-58
2022/07/06 03:04:10;;;;;;;8.45;6.07;;;;;;;12.02;83.99;102477.84;5115824;28;20035;-58
2022/07/06 03:06:35;;;;;;;7.82;6.22;;;;;;;11.96;83.79;102471.66;5115362;28;20032;-59
2022/07/06 03:09:01;;;;;;;9.45;5.97;;;;;;;11.96;84.06;102461.16;5115381;28;20059;-58
2022/07/06 03:11:26;;;;;;;10.30;6.07;;;;;;;11.89;83.87;102449.78;5115444;28;20119;-59
2022/07/06 03:13:52;;;;;;;7.35;5.75;;;;;;;12.00;84.13;102473.44;5115596;28;20078;-59
2022/07/06 03:16:17;;;;;;;9.00;5.95;;;;;;;11.91;84.61;102471.66;5115660;28;20031;-59
2022/07/06 03:18:42;;;;;;;12.32;6.55;;;;;;;11.93;84.47;102472.53;5115724;28;20316;-59
2022/07/06 03:21:08;;;;;;;9.52;6.38;;;;;;;11.79;84.75;102464.53;5115348;28;20027;-59
2022/07/06 03:23:33;;;;;;;8.73;6.35;;;;;;;11.90;84.91;102484.75;5115734;28;20121;-59
2022/07/06 03:25:58;;;;;;;9.23;6.20;;;;;;;11.94;84.64;102486.53;5115059;28;20042;-59
2022/07/06 03:28:24;;;;;;;10.10;5.85;;;;;;;11.84;85.05;102483.84;5115319;28;20118;-58
2022/07/06 03:30:49;;;;;;;8.07;5.85;;;;;;;11.83;85.09;102481.19;5115222;28;20393;-58
2022/07/06 03:33:14;;;;;;;8.73;5.97;;;;;;;11.87;84.83;102484.72;5115332;28;20332;-59
2022/07/06 03:35:39;;;;;;;10.35;5.65;;;;;;;11.82;85.13;102474.19;5114628;28;20038;-59
2022/07/06 03:38:04;;;;;;;12.25;6.25;;;;;;;11.85;85.53;102476.84;5115081;28;20506;-58
2022/07/06 03:40:30;;;;;;;8.77;6.10;;;;;;;11.84;85.50;102475.97;5115075;28;20066;-59
2022/07/06 03:42:55;;;;;;;10.68;5.75;;;;;;;11.83;85.18;102479.44;5115048;28;20090;-58
2022/07/06 03:45:20;;;;;;;7.65;5.65;;;;;;;11.75;85.69;102480.25;5114968;28;20024;-59
2022/07/06 03:47:46;;;;;;;8.13;5.78;;;;;;;11.79;86.26;102476.78;5115020;28;20351;-58
2022/07/06 03:50:11;;;;;;;7.38;5.55;;;;;;;11.78;86.43;102486.41;5115433;28;20028;-59
2022/07/06 03:52:39;;;;;;;9.32;5.88;;;;;;;11.72;86.53;102482.84;5115348;28;20032;-59
2022/07/06 03:55:08;;;;;;;9.65;5.75;;;;;;;11.82;85.79;102488.19;5115012;28;20066;-59
2022/07/06 03:57:33;;;;;;;8.60;5.43;;;;;;;11.80;86.13;102476.78;5115020;28;20027;-59
2022/07/06 03:59:58;;;;;;;8.27;5.43;;;;;;;11.90;85.49;102483.00;5115016;28;20032;-59
2022/07/06 04:02:24;;;;;;;9.35;5.90;;;;;;;11.89;85.48;102476.00;5115165;28;20035;-59
2022/07/06 04:04:49;;;;;;;7.65;5.97;;;;;;;11.84;85.86;102468.09;5114807;28;20414;-59
2022/07/06 04:07:14;;;;;;;7.07;5.60;;;;;;;11.80;85.65;102476.78;5114500;28;20042;-58
2022/07/06 04:09:40;;;;;;;9.98;6.32;;;;;;;11.83;85.71;102475.94;5117566;28;20027;-59
2022/07/06 04:12:05;;;;;;;10.02;5.75;;;;;;;11.83;85.63;102474.19;5118569;28;20035;-59
2022/07/06 04:14:31;;;;;;;8.27;5.65;;;;;;;11.85;85.68;102474.22;5118893;28;20027;-58
2022/07/06 04:16:56;;;;;;;10.15;6.00;;;;;;;11.87;85.58;102467.25;5118875;28;20028;-58
2022/07/06 04:19:21;;;;;;;9.93;5.85;;;;;;;11.90;85.72;102464.66;5118812;28;20020;-58
2022/07/06 04:21:46;;;;;;;9.43;5.68;;;;;;;11.88;86.35;102466.38;5112413;28;20367;-59
2022/07/06 04:24:12;;;;;;;8.23;5.75;;;;;;;11.94;85.70;102461.19;5108824;28;20387;-58
2022/07/06 04:26:37;;;;;;;10.75;5.82;;;;;;;11.93;85.78;102459.44;5115783;28;20028;-59
2022/07/06 04:29:03;;;;;;;9.05;5.93;;;;;;;11.91;86.76;102452.41;5114205;28;20039;-58
2022/07/06 04:31:28;;;;;;;10.70;6.28;;;;;;;11.92;86.88;102462.91;5102158;28;20055;-58
2022/07/06 04:33:54;;;;;;;9.32;5.55;;;;;;;11.94;86.74;102462.94;5098213;28;20032;-58
2022/07/06 04:36:19;;;;;;;8.05;5.35;;;;;;;11.97;87.10;102455.94;5097924;28;20032;-59
2022/07/06 04:38:47;;;;;;;8.07;6.07;;;;;;;12.03;86.60;102458.59;5098168;28;20446;-58
2022/07/06 04:41:12;;;;;;;10.13;5.82;;;;;;;12.00;86.75;102455.97;5098044;28;20028;-58
2022/07/06 04:43:37;;;;;;;10.45;5.80;;;;;;;12.08;86.43;102456.03;5097698;28;20039;-59
2022/07/06 04:46:03;;;;;;;8.63;5.20;;;;;;;12.14;86.15;102453.41;5097603;28;20028;-58
2022/07/06 04:48:28;;;;;;;8.00;5.40;;;;;;;12.17;85.68;102456.94;5097813;28;20442;-58
2022/07/06 04:50:53;;;;;;;7.43;5.03;;;;;;;12.25;86.06;102462.25;5097633;28;20036;-58
2022/07/06 04:53:19;;;;;;;8.70;5.43;;;;;;;12.28;86.41;102456.13;5097711;28;20043;-58
2022/07/06 04:55:44;;;;;;;9.02;5.53;;;;;;;12.33;85.73;102464.91;5097492;28;20122;-59
2022/07/06 04:58:09;;;;;;;7.30;5.28;;;;;;;12.42;85.38;102452.72;5097561;28;20093;-58
2022/07/06 05:00:35;;;;;;;11.15;5.35;;;;;;;12.40;85.84;102451.81;5097754;28;20032;-59
2022/07/06 05:03:00;;;;;;;8.40;5.15;;;;;;;12.47;85.57;102458.84;5097373;28;20038;-59
2022/07/06 05:05:25;;;;;;;7.25;4.70;;;;;;;12.55;85.89;102464.13;5100819;28;20031;-59
2022/07/06 05:07:50;;;;;;;6.28;4.45;;;;;;;12.63;85.11;102457.19;5104961;28;20439;-58
2022/07/06 05:10:16;;;;;;;8.65;4.88;;;;;;;12.69;84.75;102465.06;5097530;28;20466;-59
2022/07/06 05:12:41;;;;;;;6.97;4.47;;;;;;;12.77;84.51;102468.63;5097560;28;20031;-59
2022/07/06 05:15:07;;;;;;;6.97;4.75;;;;;;;12.82;84.45;102466.84;5097343;28;20100;-58
2022/07/06 05:17:32;;;;;;;6.05;4.65;;;;;;;12.92;84.15;102474.78;5097229;28;20036;-58
2022/07/06 05:19:58;;;;;;;6.35;4.30;;;;;;;12.99;83.91;102466.91;5096486;28;20111;-59
2022/07/06 05:22:24;;;;;;;8.48;4.68;;;;;;;13.04;83.94;102470.44;5096681;28;20442;-59
2022/07/06 05:24:49;;;;;;;6.05;4.22;;;;;;;13.06;83.37;102462.56;5097027;28;20444;-59
2022/07/06 05:27:14;;;;;;;6.22;3.78;;;;;;;13.20;83.73;102477.50;5096926;28;20032;-59
2022/07/06 05:29:40;;;;;;;10.10;4.30;;;;;;;13.26;83.51;102479.28;5096903;28;20047;-59
2022/07/06 05:32:05;;;;;;;6.43;3.97;;;;;;;13.34;83.43;102476.66;5096465;28;20044;-59
2022/07/06 05:34:31;;;;;;;7.88;4.30;;;;;;;13.40;82.58;102476.66;5096604;28;20034;-59
2022/07/06 05:36:56;;;;;;;5.82;3.88;;;;;;;13.44;83.09;102475.78;5096302;28;20058;-58
2022/07/06 05:39:22;;;;;;;5.10;4.17;;;;;;;13.50;83.11;102484.59;5096857;28;20089;-60
2022/07/06 05:41:48;;;;;;;6.18;3.60;;;;;;;13.56;82.90;102474.03;5096284;28;20635;-58
2022/07/06 05:44:13;;;;;;;6.82;4.07;;;;;;;13.64;82.54;102473.19;5096593;28;20038;-57
2022/07/06 05:46:39;;;;;;;7.95;4.00;;;;;;;13.69;82.38;102480.19;5097645;28;20068;-57
2022/07/06 05:51:50;;;;;;;6.38;4.20;;;;;;;13.99;81.97;102487.19;5116606;28;20122;-57
2022/07/06 05:54:15;;;;;;;6.63;3.58;;;;;;;14.11;81.23;102481.03;5116881;28;20099;-57
2022/07/06 05:56:40;;;;;;;4.88;3.65;;;;;;;14.26;80.86;102479.22;5116847;28;20028;-57
2022/07/06 05:59:06;;;;;;;5.80;3.67;;;;;;;14.36;80.50;102488.00;5116814;28;20070;-57
2022/07/06 06:01:31;;;;;;;6.60;3.60;;;;;;;14.47;79.02;102480.97;5116823;28;20503;-57
2022/07/06 06:03:56;;;;;;;6.78;3.38;;;;;;;14.75;78.60;102479.09;5116663;28;20065;-57
2022/07/06 06:06:21;;;;;;;6.45;3.40;;;;;;;15.01;77.06;102486.00;5116553;28;20067;-57
2022/07/06 06:08:47;;;;;;;4.13;2.90;;;;;;;15.09;76.11;102485.06;5116726;28;20036;-57
2022/07/06 06:11:12;;;;;;;6.88;3.10;;;;;;;15.13;75.98;102497.34;5115998;28;20019;-57
2022/07/06 06:13:37;;;;;;;6.07;3.10;;;;;;;15.20;76.28;102487.66;5116450;28;20099;-57
2022/07/06 06:16:03;;;;;;;3.20;2.65;;;;;;;15.33;76.19;102494.59;5116626;28;20362;-58
2022/07/06 06:18:28;;;;;;;5.75;2.80;;;;;;;15.38;74.83;102486.66;5116326;28;20047;-57
2022/07/06 06:20:53;;;;;;;4.70;2.78;;;;;;;15.29;75.10;102492.84;5116637;28;20023;-57
2022/07/06 06:23:18;;;;;;;7.05;2.40;;;;;;;15.23;74.91;102487.63;5116177;28;20031;-57
2022/07/06 06:25:44;;;;;;;3.65;2.30;;;;;;;15.16;75.32;102488.53;5116201;28;20035;-57
2022/07/06 06:28:10;;;;;;;3.83;1.70;;;;;;;15.17;75.00;102499.09;5116180;28;20035;-57
2022/07/06 06:30:37;;;;;;;4.95;2.10;;;;;;;15.17;74.47;102490.31;5115958;28;20032;-57
2022/07/06 06:33:14;;;;;;;5.65;1.90;;;;;;;15.27;74.74;102487.59;5115318;28;20061;-59
2022/07/06 06:35:47;;;;;;;3.90;1.70;;;;;;;15.34;73.99;102493.72;5115288;28;20031;-57
2022/07/06 06:38:15;;;;;;;3.00;1.80;;;;;;;15.40;73.90;102501.59;5103607;28;20035;-58
2022/07/06 06:40:40;;;;;;;2.95;1.65;;;;;;;15.55;73.92;102500.59;5095304;28;20065;-58
2022/07/06 06:43:06;;;;;;;2.00;1.50;;;;;;;15.63;73.16;102499.66;5095902;28;20036;-58
2022/07/06 06:45:31;;;;;;;5.75;1.70;;;;;;;15.72;73.42;102492.59;5094840;28;20024;-58
2022/07/06 06:47:57;;;;;;;4.13;1.63;;;;;;;15.82;73.43;102499.53;5094721;28;20040;-58
2022/07/06 06:50:23;;;;;;;5.10;2.30;;;;;;;15.90;73.35;102506.50;5095178;28;20036;-58
2022/07/06 06:52:49;;;;;;;5.57;1.77;;;;;;;15.90;72.62;102502.97;5094920;28;20032;-58
2022/07/06 06:55:14;;;;;;;3.92;1.80;;;;;;;15.83;73.13;102503.91;5094842;28;20036;-58
2022/07/06 06:57:40;;;;;;;5.38;1.85;;;;;;;15.86;72.91;102502.13;5097456;28;20108;-58
2022/07/06 07:00:06;;;;;;;5.10;1.80;;;;;;;15.90;73.42;102500.34;5094921;28;20036;-58
2022/07/06 07:02:31;;;;;;;4.18;2.15;;;;;;;15.96;73.89;102500.25;5094948;28;20121;-57
2022/07/06 07:04:56;;;;;;;5.28;2.40;;;;;;;15.91;72.75;102507.38;5094948;28;20419;-57
2022/07/06 07:07:22;;;;;;;3.35;2.00;;;;;;;15.87;72.90;102513.56;5094822;28;20097;-58
2022/07/06 07:09:47;;;;;;;6.50;2.58;;;;;;;15.73;72.67;102499.63;5094962;28;20028;-57
2022/07/06 07:12:14;;;;;;;3.55;1.92;;;;;;;15.65;73.29;102505.81;5094853;28;20028;-58
2022/07/06 07:14:40;;;;;;;3.97;1.98;;;;;;;15.58;73.54;102508.53;5094002;28;20043;-57
2022/07/06 07:17:05;;;;;;;3.95;1.70;;;;;;;15.55;73.38;102514.69;5094389;28;20031;-57
2022/07/06 07:19:30;;;;;;;3.30;1.40;;;;;;;15.59;71.48;102518.16;5109075;28;20036;-57
2022/07/06 07:21:56;;;;;;;3.03;1.40;;;;;;;15.50;71.85;102510.31;5101268;28;20042;-58
2022/07/06 07:24:21;;;;;;;3.88;1.50;;;;;;;15.49;72.07;102506.78;5093116;28;20093;-57
2022/07/06 07:26:46;;;;;;;3.13;1.20;;;;;;;15.55;72.15;102512.06;5093322;28;20120;-56
2022/07/06 07:29:12;;;;;;;3.40;1.23;;;;;;;15.58;70.33;102514.69;5093217;28;20375;-56
2022/07/06 07:31:37;;;;;;;3.05;1.20;;;;;;;15.61;70.91;102509.34;5092743;28;20048;-57
2022/07/06 07:34:02;;;;;;;2.47;1.05;;;;;;;15.69;69.13;102511.94;5092546;28;20366;-57
2022/07/06 07:36:28;;;;;;;2.35;1.00;;;;;;;15.78;68.57;102511.00;5108307;28;20062;-59
2022/07/06 07:38:53;;;;;;;4.53;1.10;;;;;;;15.81;67.19;102514.47;5113796;28;20031;-60
2022/07/06 07:41:18;;;;;;;2.60;0.80;;;;;;;15.86;66.20;102506.53;5112570;28;20042;-59
2022/07/06 07:43:44;;;;;;;2.83;0.85;;;;;;;15.90;65.43;102514.41;5115374;28;20028;-59
2022/07/06 07:46:09;;;;;;;2.83;0.70;;;;;;;15.99;65.37;102513.44;5118468;28;20028;-60
2022/07/06 07:48:34;;;;;;;1.52;0.70;;;;;;;16.05;64.22;102516.03;5118907;28;20498;-61
2022/07/06 07:51:00;;;;;;;2.35;0.82;;;;;;;16.15;63.18;102515.06;5118853;28;20378;-60
2022/07/06 07:53:26;;;;;;;1.45;0.70;;;;;;;16.23;61.80;102517.63;5118850;28;20027;-61
2022/07/06 07:55:51;;;;;;;3.58;0.70;;;;;;;16.30;61.50;102511.38;5119176;28;20055;-60
2022/07/06 07:58:16;;;;;;;2.20;0.70;;;;;;;16.38;62.03;102501.63;5100936;28;20128;-61
2022/07/06 08:00:42;;;;;;;1.73;0.57;;;;;;;16.44;61.92;102501.56;5118289;28;20061;-59
2022/07/06 08:03:07;;;;;;;1.57;0.77;;;;;;;16.47;60.12;102508.53;5118641;28;20027;-60
2022/07/06 08:05:32;;;;;;;1.45;0.70;;;;;;;16.51;61.10;102502.34;5099886;28;20604;-61
2022/07/06 08:07:58;;;;;;;3.53;0.77;;;;;;;16.56;61.18;102496.13;5100599;28;20188;-59
2022/07/06 08:10:23;;;;;;;1.30;0.70;;;;;;;16.61;60.32;102496.06;5098116;28;20035;-59
2022/07/06 08:12:48;;;;;;;1.77;0.80;;;;;;;16.59;61.01;102492.56;5114752;28;20039;-59
2022/07/06 08:15:14;;;;;;;1.65;0.80;;;;;;;16.62;61.61;102484.63;5116010;28;20024;-60
2022/07/06 08:17:39;;;;;;;3.70;0.88;;;;;;;16.70;60.91;102486.28;5111397;28;20111;-60
2022/07/06 08:20:05;;;;;;;1.92;0.90;;;;;;;16.75;60.94;102491.53;5118989;28;20386;-59
2022/07/06 08:22:31;;;;;;;2.15;0.85;;;;;;;16.75;60.42;102480.94;5108153;28;20032;-60
2022/07/06 08:24:56;;;;;;;2.60;0.80;;;;;;;16.85;60.44;102489.63;5115240;28;20417;-60
2022/07/06 08:27:21;;;;;;;2.63;0.75;;;;;;;16.85;60.59;102490.50;5118322;28;20088;-60
2022/07/06 08:29:47;;;;;;;1.33;0.70;;;;;;;16.94;59.87;102494.81;5114168;28;20032;-61
2022/07/06 08:32:12;;;;;;;2.38;0.55;;;;;;;17.05;60.30;102491.09;5108352;28;20138;-60
2022/07/06 08:34:37;;;;;;;3.70;0.80;;;;;;;17.22;61.09;102479.41;5112053;28;20077;-59
2022/07/06 08:37:03;;;;;;;3.63;0.80;;;;;;;17.30;59.20;102466.94;5117845;28;20445;-59
2022/07/06 08:39:28;;;;;;;5.13;0.70;;;;;;;17.56;58.96;102475.34;5117863;28;20028;-60
2022/07/06 08:41:56;;;;;;;1.73;0.70;;;;;;;17.81;58.54;102482.91;5117605;28;20118;-61
2022/07/06 08:44:23;;;;;;;2.88;0.70;;;;;;;17.92;58.48;102489.75;5114677;28;20064;-60
2022/07/06 08:46:49;;;;;;;2.30;0.70;;;;;;;18.00;57.66;102485.22;5100711;28;20047;-60
2022/07/06 08:49:16;;;;;;;2.00;0.70;;;;;;;18.20;56.45;102482.16;5096887;28;20051;-60
2022/07/06 08:51:42;;;;;;;2.03;0.90;;;;;;;18.27;56.60;102478.50;5102349;28;20061;-59
2022/07/06 08:54:08;;;;;;;2.22;0.90;;;;;;;18.25;56.73;102479.44;5113487;28;20071;-59
2022/07/06 08:56:33;;;;;;;2.65;1.00;;;;;;;18.28;57.64;102474.97;5117393;28;20051;-60
2022/07/06 08:58:59;;;;;;;3.35;1.08;;;;;;;18.39;56.74;102478.25;5117537;28;20039;-60
2022/07/06 09:01:25;;;;;;;2.00;0.88;;;;;;;18.43;56.64;102474.66;5117404;28;20039;-60
2022/07/06 09:03:54;;;;;;;1.67;0.75;;;;;;;18.69;55.95;102468.00;5117431;28;20031;-60
2022/07/06 09:06:26;;;;;;;1.85;0.75;;;;;;;19.03;55.55;102471.66;5117421;28;20055;-59
2022/07/06 09:08:55;;;;;;;1.60;0.70;;;;;;;19.16;54.29;102466.06;5117115;28;20028;-60
2022/07/06 09:11:21;;;;;;;1.95;0.85;;;;;;;19.17;54.27;102459.84;5117240;28;20028;-60
2022/07/06 09:13:47;;;;;;;2.35;1.00;;;;;;;19.22;53.78;102473.88;5116700;28;20031;-59
2022/07/06 09:16:15;;;;;;;1.38;0.70;;;;;;;19.53;53.21;102471.41;5117245;28;20494;-61
2022/07/06 09:18:44;;;;;;;1.98;0.70;;;;;;;20.62;51.53;102462.22;5117115;28;20111;-60
2022/07/06 09:21:09;;;;;;;2.10;0.63;;;;;;;21.59;48.01;102463.66;5117132;28;20038;-60
2022/07/06 09:23:36;;;;;;;1.85;0.70;;;;;;;22.41;45.92;102466.97;5117099;28;20039;-60
2022/07/06 09:26:03;;;;;;;1.90;0.80;;;;;;;22.70;42.46;102455.19;5116560;28;20451;-61
2022/07/06 09:28:45;;;;;;;1.95;0.80;;;;;;;23.13;43.81;102465.09;5116818;28;20789;-60
2022/07/06 09:31:11;;;;;;;;;;;;;;;23.60;43.92;102460.50;5116925;28;20038;-59
2022/07/06 09:33:36;;;;;;;4.53;0.60;;;;;;;22.41;43.21;102464.28;5116767;28;20317;-60
2022/07/06 09:36:03;;;;;;;3.53;0.70;;;;;;;22.40;44.45;102469.69;5116945;28;20032;-61
2022/07/06 09:38:28;;;;;;;4.15;0.75;;;;;;;22.26;44.15;102467.53;5096706;28;20367;-61
2022/07/06 09:40:54;;;;;;;3.03;0.80;;;;;;;21.95;44.85;102469.53;5096129;28;20028;-60
2022/07/06 09:43:22;;;;;;;2.25;0.70;;;;;;;21.35;45.71;102468.84;5095827;28;20403;-61
2022/07/06 09:45:52;;;;;;;1.27;0.50;;;;;;;20.97;47.19;102470.03;5096028;28;20042;-60
2022/07/06 09:48:23;;;;;;;1.52;0.52;;;;;;;20.78;47.24;102475.03;5096526;28;20035;-60
2022/07/06 09:50:57;;;;;;;1.58;0.80;;;;;;;20.55;48.26;102479.31;5095866;28;20027;-60
2022/07/06 09:53:26;;;;;;;2.10;0.57;;;;;;;20.52;47.35;102482.91;5098259;28;20021;-61
2022/07/06 09:55:53;;;;;;;1.27;0.50;;;;;;;20.46;47.88;102480.44;5098819;28;20028;-58
2022/07/06 09:58:19;;;;;;;2.05;0.70;;;;;;;20.62;47.14;102476.41;5096096;28;20047;-58
2022/07/06 10:00:46;;;;;;;2.20;0.70;;;;;;;20.64;45.98;102471.91;5106878;28;20335;-58
2022/07/06 10:03:13;;;;;;;1.63;0.60;;;;;;;20.52;46.89;102484.72;5110345;28;20114;-58
2022/07/06 10:05:41;;;;;;;1.00;0.50;;;;;;;20.45;46.66;102481.34;5115889;28;20032;-56
2022/07/06 10:08:11;;;;;;;0.77;0.60;;;;;;;20.42;46.13;102471.69;5103781;28;20454;-56
2022/07/06 10:10:39;;;;;;;3.15;0.88;;;;;;;20.76;47.13;102476.03;5096012;28;20043;-57
2022/07/06 10:13:06;;;;;;;1.55;0.60;;;;;;;20.87;45.79;102476.56;5095719;28;20063;-57
2022/07/06 10:15:32;;;;;;;1.50;0.60;;;;;;;20.93;46.39;102481.72;5095665;28;20101;-56
2022/07/06 10:17:58;;;;;;;1.60;0.55;;;;;;;20.90;46.65;102479.13;5095559;28;20032;-58
2022/07/06 10:20:27;;;;;;;2.65;0.80;;;;;;;20.66;45.92;102477.19;5095592;28;20039;-58
2022/07/06 10:22:54;;;;;;;3.13;0.90;;;;;;;20.58;46.47;102488.06;5095781;28;20028;-58
2022/07/06 10:25:19;;;;;;;2.58;0.70;;;;;;;20.53;47.42;102487.31;5095068;28;20462;-57
2022/07/06 10:27:53;;;;;;;4.55;0.80;;;;;;;20.45;46.26;102484.00;5112327;27;20450;-58
2022/07/06 10:30:19;;;;;;;2.10;0.60;;;;;;;20.40;47.39;102462.00;5111864;28;20051;-60
2022/07/06 10:32:47;;;;;;;2.58;0.70;;;;;;;20.61;46.73;102493.28;5112237;28;20119;-58
2022/07/06 10:35:13;;;;;;;1.58;0.60;;;;;;;20.68;48.32;102473.56;5105388;28;20098;-58
2022/07/06 10:37:39;;;;;;;4.35;0.60;;;;;;;20.68;46.06;102478.91;5089605;28;20039;-58
2022/07/06 10:43:01;;;;;;;1.17;0.45;;;;;;;20.99;45.48;102481.50;5110166;28;20481;-59
2022/07/06 10:45:26;;;;;;;1.55;0.50;;;;;;;20.99;43.82;102475.31;5110309;28;20125;-58
2022/07/06 10:48:24;;;;;;;2.27;0.70;;;;;;;21.15;45.44;102479.22;5110450;28;20397;-58
2022/07/06 10:50:55;;;;;;;1.77;0.50;;;;;;;21.17;43.73;102482.72;5065020;28;20040;-58
2022/07/06 10:53:25;;;;;;;1.63;0.40;;;;;;;21.27;44.32;102475.38;5110019;28;20063;-59
2022/07/06 10:55:54;;;;;;;1.30;0.47;;;;;;;21.29;43.05;102481.50;5110046;28;20531;-58
2022/07/06 10:58:36;;;;;;;2.22;0.63;;;;;;;21.38;45.17;102473.22;5110032;28;20569;-60
2022/07/06 11:01:04;;;;;;;1.65;0.60;;;;;;;21.18;43.88;102471.16;5110330;28;20070;-58
2022/07/06 11:03:36;;;;;;;1.88;0.70;;;;;;;21.23;44.49;102468.38;5111577;28;20088;-57
2022/07/06 11:06:06;;;;;;;2.95;0.60;;;;;;;21.13;43.83;102465.97;5111438;28;20027;-57
2022/07/06 11:08:53;;;;;;;2.17;0.70;;;;;;;21.14;44.34;102467.72;5111580;28;20039;-58
2022/07/06 11:11:22;;;;;;;2.53;0.65;;;;;;;21.44;43.06;102465.91;5101795;28;20459;-58
2022/07/06 11:13:49;;;;;;;2.63;0.40;;;;;;;21.52;42.44;102465.63;5091075;28;20363;-58
2022/07/06 11:16:17;;;;;;;2.20;0.57;;;;;;;21.63;41.75;102468.84;5109433;28;20042;-57
2022/07/06 11:18:59;;;;;;;1.60;0.60;;;;;;;21.64;42.82;102464.38;5111516;28;20032;-58
2022/07/06 11:21:51;;;;;;;1.65;0.60;;;;;;;21.55;43.31;102470.88;5099390;28;20028;-57
2022/07/06 11:24:19;;;;;;;1.92;0.70;;;;;;;21.35;43.07;102460.88;5111611;28;20027;-58
2022/07/06 11:26:46;;;;;;;2.85;0.57;;;;;;;21.29;42.29;102465.53;5122359;28;20112;-58